createdAt,value
2022-11-15T00:00:57.536Z,4.55
2022-11-15T00:03:26.424Z,4.53
2022-11-15T00:05:53.331Z,4.47
2022-11-15T00:08:19.987Z,4.47
2022-11-15T00:10:57.141Z,4.39
2022-11-15T00:13:24.280Z,4.44
2022-11-15T00:15:50.923Z,4.46
2022-11-15T00:18:18.028Z,4.47
2022-11-15T00:20:45.160Z,4.45
2022-11-15T00:23:12.000Z,4.45
2022-11-15T00:25:38.603Z,4.38
2022-11-15T00:28:05.196Z,4.38
2022-11-15T00:30:31.782Z,4.42
2022-11-15T00:33:03.875Z,4.44
2022-11-15T00:35:33.587Z,4.45
2022-11-15T00:38:00.828Z,4.42
2022-11-15T00:40:27.552Z,4.40
2022-11-15T00:42:54.204Z,4.41
2022-11-15T00:45:20.764Z,4.37
2022-11-15T00:47:47.895Z,4.35
2022-11-15T00:50:15.503Z,4.36
2022-11-15T00:52:42.332Z,4.40
2022-11-15T00:55:20.057Z,4.35
2022-11-15T00:57:47.404Z,4.35
2022-11-15T01:00:14.461Z,4.38
2022-11-15T01:02:41.040Z,4.32
2022-11-15T01:05:08.139Z,4.33
2022-11-15T01:07:34.884Z,4.36
2022-11-15T01:10:01.583Z,4.37
2022-11-15T01:12:28.229Z,4.36
2022-11-15T01:14:55.353Z,4.39
2022-11-15T01:17:22.053Z,4.37
2022-11-15T01:19:48.651Z,4.36
2022-11-15T01:22:15.218Z,4.36
2022-11-15T01:24:41.882Z,4.34
2022-11-15T01:27:08.737Z,4.42
2022-11-15T01:29:35.400Z,4.41
2022-11-15T01:32:02.300Z,4.37
2022-11-15T01:34:28.840Z,4.40
2022-11-15T01:36:55.404Z,4.38
2022-11-15T01:39:22.082Z,4.38
2022-11-15T01:41:48.644Z,4.40
2022-11-15T01:44:35.648Z,4.34
2022-11-15T01:47:07.010Z,4.31
2022-11-15T01:49:36.131Z,4.37
2022-11-15T01:52:05.884Z,4.32
2022-11-15T01:54:33.416Z,4.26
2022-11-15T01:57:10.304Z,4.30
2022-11-15T01:59:40.569Z,4.27
2022-11-15T02:02:07.417Z,4.23
2022-11-15T02:04:37.316Z,4.21
2022-11-15T02:07:06.217Z,4.24
2022-11-15T02:09:32.855Z,4.18
2022-11-15T02:12:00.600Z,4.22
2022-11-15T02:14:29.261Z,4.18
2022-11-15T02:17:21.687Z,4.16
2022-11-15T02:20:18.448Z,4.14
2022-11-15T02:22:57.256Z,4.02
2022-11-15T02:25:33.329Z,4.00
2022-11-15T02:28:02.481Z,4.01
2022-11-15T02:30:42.102Z,4.03
2022-11-15T02:33:27.406Z,3.93
2022-11-15T02:36:01.586Z,4.05
2022-11-15T02:38:39.500Z,4.00
2022-11-15T02:41:11.289Z,4.00
2022-11-15T02:44:06.940Z,3.96
2022-11-15T02:47:16.286Z,3.94
2022-11-15T02:49:55.552Z,3.90
2022-11-15T02:52:26.289Z,3.93
2022-11-15T02:54:57.683Z,3.94
2022-11-15T02:57:50.619Z,3.89
2022-11-15T03:00:20.284Z,3.80
2022-11-15T03:03:05.703Z,3.76
2022-11-15T03:06:01.469Z,3.76
2022-11-15T03:08:57.284Z,3.81
2022-11-15T03:11:24.592Z,3.81
2022-11-15T03:14:19.695Z,3.81
2022-11-15T03:16:49.200Z,3.74
2022-11-15T03:19:41.619Z,3.81
2022-11-15T03:22:15.160Z,3.66
2022-11-15T06:11:15.287Z,2.95
2022-11-15T06:13:41.914Z,2.97
2022-11-15T06:16:08.447Z,2.97
2022-11-15T06:18:36.101Z,3.03
2022-11-15T06:21:02.656Z,3.03
2022-11-15T06:23:33.444Z,3.00
2022-11-15T06:26:00.565Z,3.02
2022-11-15T06:28:33.969Z,2.91
2022-11-15T06:31:05.488Z,2.85
2022-11-15T06:33:32.731Z,2.79
2022-11-15T06:36:10.869Z,2.82
2022-11-15T06:38:41.191Z,2.77
2022-11-15T06:41:10.379Z,2.68
2022-11-15T06:43:37.460Z,2.62
2022-11-15T06:46:05.805Z,2.60
2022-11-15T06:48:33.964Z,2.61
2022-11-15T06:51:02.168Z,2.53
2022-11-15T06:53:29.281Z,2.52
2022-11-15T06:56:03.784Z,2.60
2022-11-15T06:58:30.690Z,2.62
2022-11-15T07:01:12.649Z,2.61
2022-11-15T07:03:41.639Z,2.59
2022-11-15T07:06:09.543Z,2.58
2022-11-15T07:08:36.748Z,2.45
2022-11-15T07:11:08.425Z,2.34
2022-11-15T07:13:36.528Z,2.24
2022-11-15T07:16:07.951Z,2.27
2022-11-15T07:18:39.405Z,2.29
2022-11-15T07:21:08.521Z,2.35
2022-11-15T07:23:38.287Z,2.30
2022-11-15T07:26:05.034Z,2.30
2022-11-15T07:28:31.826Z,2.29
2022-11-15T07:30:58.635Z,2.33
2022-11-15T07:33:25.183Z,2.41
2022-11-15T07:35:51.769Z,2.50
2022-11-15T07:38:21.611Z,2.36
2022-11-15T07:40:48.533Z,2.39
2022-11-15T07:43:15.185Z,2.54
2022-11-15T07:45:46.473Z,2.59
2022-11-15T07:48:13.071Z,2.64
2022-11-15T07:50:43.474Z,2.78
2022-11-15T07:53:11.413Z,2.70
2022-11-15T07:55:38.345Z,2.77
2022-11-15T07:58:06.612Z,2.79
2022-11-15T08:00:34.196Z,2.79
2022-11-15T08:03:07.523Z,2.80
2022-11-15T08:05:34.840Z,2.89
2022-11-15T08:08:01.715Z,2.92
2022-11-15T08:10:29.628Z,2.92
2022-11-15T08:13:08.393Z,2.88
2022-11-15T08:15:36.507Z,2.91
2022-11-15T08:18:06.048Z,2.89
2022-11-15T08:20:33.360Z,2.90
2022-11-15T08:23:02.023Z,2.84
2022-11-15T08:25:30.837Z,2.93
2022-11-15T08:27:59.633Z,2.91
2022-11-15T08:30:26.795Z,3.03
2022-11-15T08:32:54.478Z,3.00
2022-11-15T08:35:26.232Z,3.09
2022-11-15T08:37:55.735Z,3.09
2022-11-15T08:40:24.255Z,3.14
2022-11-15T08:42:50.932Z,3.24
2022-11-15T08:45:17.591Z,3.28
2022-11-15T08:47:49.727Z,3.28
2022-11-15T08:50:19.748Z,3.24
2022-11-15T08:52:46.387Z,3.34
2022-11-15T08:55:12.937Z,3.37
2022-11-15T08:57:39.518Z,3.32
2022-11-15T09:00:06.897Z,3.24
2022-11-15T09:02:33.472Z,3.19
2022-11-15T09:05:00.080Z,3.28
2022-11-15T09:07:26.722Z,3.29
2022-11-15T09:09:53.360Z,3.28
2022-11-15T09:12:19.975Z,3.44
2022-11-15T09:14:46.531Z,3.54
2022-11-15T09:17:13.067Z,3.58
2022-11-15T09:19:39.657Z,3.48
2022-11-15T09:22:09.573Z,3.52
2022-11-15T09:24:36.384Z,3.73
2022-11-15T09:27:03.090Z,3.86
2022-11-15T09:29:29.708Z,3.88
2022-11-15T09:31:56.266Z,3.90
2022-11-15T09:34:22.916Z,3.91
2022-11-15T09:36:49.474Z,3.87
2022-11-15T09:39:16.060Z,3.96
2022-11-15T09:41:56.540Z,4.00
2022-11-15T09:44:59.941Z,4.10
2022-11-15T09:47:35.593Z,4.11
2022-11-15T09:50:08.955Z,4.03
2022-11-15T09:52:37.585Z,4.11
2022-11-15T09:55:07.301Z,4.04
2022-11-15T09:57:43.047Z,4.00
2022-11-15T10:00:46.347Z,4.12
2022-11-15T10:03:15.092Z,4.06
2022-11-15T10:05:49.856Z,4.04
2022-11-15T10:08:22.528Z,4.03
2022-11-15T10:11:09.772Z,3.99
2022-11-15T10:13:45.657Z,4.09
2022-11-15T10:16:35.609Z,4.11
2022-11-15T10:19:11.363Z,4.08
2022-11-15T10:22:09.426Z,4.08
2022-11-15T10:24:41.249Z,4.11
2022-11-15T10:27:17.546Z,4.13
2022-11-15T10:29:46.810Z,4.15
2022-11-15T10:32:15.268Z,4.18
2022-11-15T10:34:42.306Z,4.23
2022-11-15T10:37:09.466Z,4.25
2022-11-15T10:39:36.048Z,4.32
2022-11-15T10:42:29.114Z,4.32
2022-11-15T10:44:55.957Z,4.41
2022-11-15T10:47:23.195Z,4.47
2022-11-15T10:49:57.598Z,4.46
2022-11-15T10:52:25.537Z,4.51
2022-11-15T10:54:53.168Z,4.55
2022-11-15T10:57:23.680Z,4.56
2022-11-15T10:59:53.956Z,4.59
2022-11-15T11:02:31.664Z,4.60
2022-11-15T11:04:58.334Z,4.63
2022-11-15T11:07:28.299Z,4.61
2022-11-15T11:09:59.208Z,4.61
2022-11-15T11:12:33.865Z,4.57
2022-11-15T11:15:13.029Z,4.57
2022-11-15T11:17:51.447Z,4.53
2022-11-15T11:20:37.807Z,4.50
2022-11-15T11:23:13.306Z,4.47
2022-11-15T11:26:22.062Z,4.54
2022-11-15T11:29:12.977Z,4.60
2022-11-15T11:32:02.144Z,4.58
2022-11-15T11:35:01.217Z,4.62
2022-11-15T11:37:42.628Z,4.73
2022-11-15T11:40:44.324Z,4.78
2022-11-15T11:43:29.174Z,4.85
2022-11-15T11:46:14.474Z,4.86
2022-11-15T11:48:48.431Z,4.91
2022-11-15T11:51:24.370Z,4.95
2022-11-15T11:54:01.215Z,4.94
2022-11-15T11:56:30.827Z,4.89
2022-11-15T11:59:07.609Z,4.91
2022-11-15T12:01:43.936Z,4.95
2022-11-15T12:04:13.665Z,4.89
2022-11-15T12:06:57.719Z,4.87
2022-11-15T12:09:45.609Z,4.89
2022-11-15T12:12:22.392Z,4.93
2022-11-15T12:15:04.480Z,4.97
2022-11-15T12:17:33.089Z,4.94
2022-11-15T12:20:10.309Z,4.92
2022-11-15T12:22:37.833Z,4.94
2022-11-15T12:25:56.579Z,4.91
2022-11-15T12:28:33.500Z,4.96
2022-11-15T12:31:17.391Z,4.94
2022-11-15T12:34:00.612Z,5.04
2022-11-15T12:36:43.078Z,5.04
2022-11-15T12:39:14.038Z,5.08
2022-11-15T12:41:42.871Z,5.12
2022-11-15T12:44:24.122Z,5.11
2022-11-15T12:46:50.647Z,5.18
2022-11-15T12:49:40.417Z,5.10
2022-11-15T12:52:09.281Z,5.15
2022-11-15T12:54:41.446Z,5.06
2022-11-15T12:57:07.977Z,4.99
2022-11-15T12:59:59.157Z,5.01
2022-11-15T13:02:49.442Z,5.03
2022-11-15T13:05:23.420Z,4.98
2022-11-15T13:07:50.076Z,4.95
2022-11-15T13:10:16.577Z,5.01
2022-11-15T13:12:46.118Z,5.02
2022-11-15T13:15:12.616Z,5.09
2022-11-15T13:17:55.716Z,5.08
2022-11-15T13:20:28.690Z,5.04
2022-11-15T13:23:05.659Z,5.06
2022-11-15T13:26:05.995Z,5.05
2022-11-15T13:28:32.662Z,5.15
2022-11-15T13:31:02.093Z,5.09
2022-11-15T13:33:37.911Z,5.10
2022-11-15T13:36:15.585Z,5.10
2022-11-15T13:38:42.944Z,5.10
2022-11-15T13:41:17.977Z,5.10
2022-11-15T13:43:44.868Z,5.09
2022-11-15T13:46:24.569Z,5.16
2022-11-15T13:48:57.588Z,5.12
2022-11-15T13:51:47.276Z,5.14
2022-11-15T13:54:18.539Z,5.13
2022-11-15T13:56:52.963Z,5.12
2022-11-15T13:59:50.880Z,5.18
2022-11-15T14:02:26.278Z,5.22
2022-11-15T14:04:57.258Z,5.18
2022-11-15T14:07:26.648Z,5.18
2022-11-15T14:09:53.333Z,5.22
2022-11-15T14:12:30.842Z,5.23
2022-11-15T14:14:58.255Z,5.27
2022-11-15T14:17:30.855Z,5.25
2022-11-15T14:19:59.014Z,5.20
2022-11-15T14:22:29.023Z,5.23
2022-11-15T14:25:13.682Z,5.23
2022-11-15T14:27:41.617Z,5.19
2022-11-15T14:30:17.649Z,5.22
2022-11-15T14:32:48.324Z,5.21
2022-11-15T14:35:20.759Z,5.22
2022-11-15T14:53:03.634Z,5.27
2022-11-15T14:55:35.276Z,5.26
2022-11-15T14:58:06.165Z,5.25
2022-11-15T15:00:35.229Z,5.33
2022-11-15T15:03:02.639Z,5.25
2022-11-15T15:05:41.396Z,5.27
2022-11-15T15:08:09.036Z,5.25
2022-11-15T15:10:44.352Z,5.28
2022-11-15T15:13:22.820Z,5.26
2022-11-15T15:15:50.687Z,5.29
2022-11-15T15:18:17.685Z,5.33
2022-11-15T15:20:46.817Z,5.30
2022-11-15T15:23:19.125Z,5.36
2022-11-15T15:25:47.019Z,5.30
2022-11-15T15:28:14.058Z,5.27
2022-11-15T15:30:40.716Z,5.28
2022-11-15T15:33:07.426Z,5.35
2022-11-15T15:35:35.724Z,5.29
2022-11-15T15:38:03.073Z,5.30
2022-11-15T15:40:32.670Z,5.32
2022-11-15T15:42:59.831Z,5.34
2022-11-15T15:58:37.311Z,5.35
2022-11-15T16:01:04.121Z,5.35
2022-11-15T16:03:30.741Z,5.29
2022-11-15T16:05:57.401Z,5.30
2022-11-15T16:08:25.443Z,5.38
2022-11-15T16:10:52.038Z,5.37
2022-11-15T16:13:18.729Z,5.32
2022-11-15T16:15:47.907Z,5.30
2022-11-15T16:18:17.507Z,5.35
2022-11-15T16:20:51.034Z,5.35
2022-11-15T16:23:20.936Z,5.36
2022-11-15T16:25:52.032Z,5.34
2022-11-15T16:28:30.723Z,5.37
2022-11-15T16:31:05.128Z,5.38
2022-11-15T16:33:32.486Z,5.37
2022-11-15T16:35:59.333Z,5.38
2022-11-15T16:38:26.035Z,5.33
2022-11-15T16:40:52.694Z,5.35
2022-11-15T16:43:19.498Z,5.33
2022-11-15T16:45:46.405Z,5.36
2022-11-15T16:48:28.778Z,5.36
2022-11-15T16:50:57.377Z,5.34
2022-11-15T16:53:24.888Z,5.37
2022-11-15T16:55:51.497Z,5.38
2022-11-15T16:58:18.027Z,5.37
2022-11-15T17:00:44.755Z,5.34
2022-11-15T17:03:12.103Z,5.38
2022-11-15T17:05:38.664Z,5.36
2022-11-15T17:08:06.483Z,5.39
2022-11-15T17:10:33.102Z,5.44
2022-11-15T17:12:59.637Z,5.41
2022-11-15T17:15:26.194Z,5.42
2022-11-15T17:17:54.396Z,5.40
2022-11-15T17:20:24.071Z,5.41
2022-11-15T17:22:51.506Z,5.43
2022-11-15T17:25:18.124Z,5.45
2022-11-15T17:27:44.699Z,5.47
2022-11-15T17:30:15.212Z,5.46
2022-11-15T17:32:43.098Z,5.47
2022-11-15T17:35:15.635Z,5.50
2022-11-15T17:37:42.896Z,5.46
2022-11-15T17:40:09.942Z,5.49
2022-11-15T17:42:36.524Z,5.50
2022-11-15T17:45:08.383Z,5.49
2022-11-15T17:47:37.256Z,5.50
2022-11-15T17:50:04.132Z,5.51
2022-11-15T17:52:30.667Z,5.52
2022-11-15T17:54:57.276Z,5.50
2022-11-15T17:57:24.121Z,5.51
2022-11-15T17:59:50.668Z,5.50
2022-11-15T18:02:17.302Z,5.51
2022-11-15T18:04:43.848Z,5.47
2022-11-15T18:07:12.321Z,5.45
2022-11-15T18:09:42.402Z,5.45
2022-11-15T18:12:09.692Z,5.48
2022-11-15T18:14:36.605Z,5.47
2022-11-15T18:17:03.308Z,5.47
2022-11-15T18:19:29.852Z,5.45
2022-11-15T18:21:56.597Z,5.46
2022-11-15T18:24:30.454Z,5.46
2022-11-15T18:26:58.146Z,5.44
2022-11-15T18:29:25.084Z,5.44
2022-11-15T18:34:24.878Z,5.44
2022-11-15T18:36:52.673Z,5.46
2022-11-15T18:39:19.957Z,5.48
2022-11-15T18:41:47.082Z,5.46
2022-11-15T18:44:15.608Z,5.49
2022-11-15T18:46:42.698Z,5.49
2022-11-15T18:49:10.665Z,5.50
2022-11-15T18:51:37.977Z,5.49
2022-11-15T18:54:04.643Z,5.50
2022-11-15T18:56:32.720Z,5.49
2022-11-15T18:59:02.026Z,5.43
2022-11-15T19:01:34.637Z,5.44
2022-11-15T19:04:20.678Z,5.47
2022-11-15T19:06:49.534Z,5.48
2022-11-15T19:09:17.658Z,5.49
2022-11-15T19:11:46.431Z,5.49
2022-11-15T19:14:15.971Z,5.48
2022-11-15T19:16:52.026Z,5.47
2022-11-15T19:19:21.626Z,5.45
2022-11-15T19:21:48.687Z,5.44
2022-11-15T19:24:15.517Z,5.47
2022-11-15T19:26:42.590Z,5.48
2022-11-15T19:29:13.856Z,5.50
2022-11-15T19:31:40.901Z,5.49
2022-11-15T19:34:08.430Z,5.49
2022-11-15T19:36:37.689Z,5.45
2022-11-15T19:39:08.475Z,5.50
2022-11-15T19:41:37.945Z,5.46
2022-11-15T19:44:05.836Z,5.43
2022-11-15T19:46:32.745Z,5.45
2022-11-15T19:48:59.453Z,5.43
2022-11-15T19:51:28.258Z,5.45
2022-11-15T19:54:01.332Z,5.46
2022-11-15T19:56:27.905Z,5.46
2022-11-15T19:58:56.418Z,5.46
2022-11-15T20:01:25.604Z,5.47
2022-11-15T20:03:54.677Z,5.43
2022-11-15T20:06:29.691Z,5.40
2022-11-15T20:08:56.303Z,5.40
2022-11-15T20:11:23.462Z,5.39
2022-11-15T20:13:50.253Z,5.40
2022-11-15T20:16:21.872Z,5.40
2022-11-15T20:18:51.502Z,5.40
2022-11-15T20:21:18.420Z,5.43
2022-11-15T20:23:47.639Z,5.42
2022-11-15T20:26:15.215Z,5.41
2022-11-15T20:28:42.229Z,5.45
2022-11-15T20:31:14.508Z,5.44
2022-11-15T20:33:41.274Z,5.43
2022-11-15T20:36:11.225Z,5.42
2022-11-15T20:38:37.853Z,5.47
2022-11-15T20:41:04.688Z,5.46
2022-11-15T20:43:31.301Z,5.44
2022-11-15T20:45:57.884Z,5.46
2022-11-15T20:48:24.521Z,5.45
2022-11-15T20:50:51.100Z,5.46
2022-11-15T20:53:20.121Z,5.43
2022-11-15T20:55:52.390Z,5.51
2022-11-15T20:58:19.449Z,5.47
2022-11-15T21:00:46.554Z,5.53
2022-11-15T21:03:14.459Z,5.52
2022-11-15T21:05:43.272Z,5.50
2022-11-15T21:08:11.786Z,5.52
2022-11-15T21:10:58.360Z,5.51
2022-11-15T21:13:25.543Z,5.49
2022-11-15T21:15:56.848Z,5.53
2022-11-15T21:18:23.760Z,5.52
2022-11-15T21:20:50.694Z,5.51
2022-11-15T21:23:17.349Z,5.49
2022-11-15T21:25:50.024Z,5.49
2022-11-15T21:28:17.182Z,5.50
2022-11-15T21:30:53.493Z,5.51
2022-11-15T21:33:21.483Z,5.49
2022-11-15T21:35:48.014Z,5.48
2022-11-15T21:38:14.637Z,5.50
2022-11-15T21:40:41.381Z,5.47
2022-11-15T21:43:07.936Z,5.44
2022-11-15T21:45:34.513Z,5.49
2022-11-15T21:48:01.054Z,5.52
2022-11-15T21:50:27.632Z,5.55
2022-11-15T21:52:54.224Z,5.52
2022-11-15T21:55:20.777Z,5.53
2022-11-15T21:57:47.378Z,5.51
2022-11-15T22:00:33.158Z,5.50
2022-11-15T22:02:59.726Z,5.52
2022-11-15T22:05:26.311Z,5.50
2022-11-15T22:07:52.977Z,5.55
2022-11-15T22:10:19.657Z,5.52
2022-11-15T22:12:46.294Z,5.51
2022-11-15T22:15:12.951Z,5.51
2022-11-15T22:18:11.696Z,5.51
2022-11-15T22:20:44.414Z,5.52
2022-11-15T22:23:11.964Z,5.51
2022-11-15T22:25:38.676Z,5.53
2022-11-15T22:28:05.485Z,5.51
2022-11-15T22:30:32.169Z,5.49
2022-11-15T22:32:58.851Z,5.47
2022-11-15T22:35:25.519Z,5.44
2022-11-15T22:37:52.858Z,5.44
2022-11-15T22:40:19.624Z,5.43
2022-11-15T22:42:46.225Z,5.45
2022-11-15T22:45:12.835Z,5.43
2022-11-15T22:47:39.401Z,5.41
2022-11-15T22:50:06.534Z,5.43
2022-11-15T22:52:33.275Z,5.44
2022-11-15T22:54:59.863Z,5.43
2022-11-15T22:57:26.496Z,5.41
2022-11-15T22:59:53.127Z,5.42
2022-11-15T23:02:19.702Z,5.40
2022-11-15T23:04:46.301Z,5.46
2022-11-15T23:07:13.066Z,5.47
2022-11-15T23:09:40.268Z,5.47
2022-11-15T23:12:27.048Z,5.43
2022-11-15T23:14:53.627Z,5.45
2022-11-15T23:17:20.176Z,5.46
2022-11-15T23:19:47.095Z,5.44
2022-11-15T23:22:32.474Z,5.49
2022-11-15T23:24:59.668Z,5.49
2022-11-15T23:27:26.376Z,5.48
2022-11-15T23:30:11.734Z,5.46
2022-11-15T23:32:57.114Z,5.45
2022-11-15T23:35:23.783Z,5.48
2022-11-15T23:37:50.335Z,5.49
2022-11-15T23:40:17.151Z,5.51
2022-11-15T23:42:43.801Z,5.48
2022-11-15T23:45:10.710Z,5.50
2022-11-15T23:47:37.266Z,5.56
2022-11-15T23:50:04.216Z,5.55
2022-11-15T23:52:31.013Z,5.53
2022-11-15T23:54:57.642Z,5.54
2022-11-15T23:57:24.323Z,5.48
2022-11-15T23:59:50.899Z,5.50
